createdAt,value
2023-02-04T00:00:18.373Z,5.03
2023-02-04T00:02:44.819Z,5.14
2023-02-04T00:05:12.193Z,5.13
2023-02-04T00:07:40.492Z,5.09
2023-02-04T00:10:10.024Z,5.26
2023-02-04T00:12:36.456Z,5.27
2023-02-04T00:15:03.110Z,5.13
2023-02-04T00:17:29.527Z,5.21
2023-02-04T00:19:55.863Z,5.21
2023-02-04T00:22:22.224Z,5.16
2023-02-04T00:24:50.426Z,5.08
2023-02-04T00:27:18.826Z,5.19
2023-02-04T00:29:45.179Z,4.97
2023-02-04T00:32:11.611Z,4.91
2023-02-04T00:34:38.426Z,4.99
2023-02-04T00:37:07.862Z,5.11
2023-02-04T00:39:34.196Z,4.89
2023-02-04T00:42:00.636Z,4.98
2023-02-04T00:44:26.934Z,4.87
2023-02-04T00:46:56.462Z,4.89
2023-02-04T00:49:22.870Z,4.84
2023-02-04T00:51:49.372Z,4.95
2023-02-04T00:54:16.082Z,4.79
2023-02-04T00:56:49.495Z,4.78
2023-02-04T00:59:16.925Z,4.82
2023-02-04T01:01:44.243Z,4.89
2023-02-04T01:04:11.029Z,4.81
2023-02-04T01:06:37.350Z,4.81
2023-02-04T01:09:04.565Z,4.72
2023-02-04T01:11:31.436Z,4.73
2023-02-04T01:13:57.938Z,4.69
2023-02-04T01:16:24.476Z,4.67
2023-02-04T01:18:51.407Z,4.80
2023-02-04T01:21:18.232Z,4.72
2023-02-04T01:23:44.818Z,4.71
2023-02-04T01:26:12.194Z,4.69
2023-02-04T01:28:38.567Z,4.70
2023-02-04T01:31:04.988Z,4.53
2023-02-04T01:33:31.407Z,4.68
2023-02-04T01:35:57.762Z,4.72
2023-02-04T01:38:24.180Z,4.45
2023-02-04T01:40:50.539Z,4.68
2023-02-04T01:43:18.389Z,4.53
2023-02-04T01:45:45.880Z,4.58
2023-02-04T01:48:14.205Z,4.68
2023-02-04T01:50:40.559Z,4.59
2023-02-04T01:53:06.976Z,4.73
2023-02-04T01:55:33.944Z,4.62
2023-02-04T01:58:00.704Z,4.63
2023-02-04T02:00:29.054Z,4.56
2023-02-04T02:02:55.891Z,4.52
2023-02-04T02:05:24.634Z,4.62
2023-02-04T02:07:52.913Z,4.49
2023-02-04T02:10:19.738Z,4.60
2023-02-04T02:12:46.476Z,4.55
2023-02-04T02:15:13.459Z,4.56
2023-02-04T02:17:40.205Z,4.67
2023-02-04T02:20:07.810Z,4.55
2023-02-04T02:22:53.035Z,4.44
2023-02-04T02:25:19.363Z,4.42
2023-02-04T02:27:47.142Z,4.50
2023-02-04T02:30:15.003Z,4.44
2023-02-04T02:32:41.530Z,4.44
2023-02-04T02:35:08.035Z,4.44
2023-02-04T02:37:34.418Z,4.39
2023-02-04T02:40:00.766Z,4.31
2023-02-04T02:42:27.158Z,4.45
2023-02-04T02:44:54.047Z,4.35
2023-02-04T02:47:21.613Z,4.42
2023-02-04T02:49:49.140Z,4.24
2023-02-04T02:52:15.683Z,4.34
2023-02-04T02:54:44.318Z,4.32
2023-02-04T02:57:15.175Z,4.33
2023-02-04T02:59:47.919Z,4.24
2023-02-04T03:02:16.299Z,4.21
2023-02-04T03:04:48.145Z,4.22
2023-02-04T03:07:16.037Z,4.28
2023-02-04T03:09:44.283Z,4.34
2023-02-04T03:12:10.641Z,4.32
2023-02-04T03:14:38.357Z,4.30
2023-02-04T03:17:06.787Z,4.28
2023-02-04T03:19:33.394Z,4.28
2023-02-04T03:22:00.088Z,4.34
2023-02-04T03:24:26.719Z,4.32
2023-02-04T03:26:53.178Z,4.34
2023-02-04T03:29:19.617Z,4.18
2023-02-04T03:31:47.084Z,4.47
2023-02-04T03:34:13.458Z,4.38
2023-02-04T03:36:39.796Z,4.29
2023-02-04T03:39:06.150Z,4.26
2023-02-04T03:41:32.632Z,4.30
2023-02-04T03:44:02.109Z,4.15
2023-02-04T03:46:28.883Z,4.19
2023-02-04T03:48:55.553Z,4.17
2023-02-04T03:51:22.123Z,4.30
2023-02-04T03:53:48.505Z,4.24
2023-02-04T03:56:14.910Z,4.14
2023-02-04T03:58:41.340Z,4.25
2023-02-04T04:01:07.692Z,4.10
2023-02-04T04:03:34.121Z,4.25
2023-02-04T04:06:00.548Z,4.35
2023-02-04T04:08:26.946Z,4.34
2023-02-04T04:10:53.264Z,4.20
2023-02-04T04:13:19.628Z,4.25
2023-02-04T04:15:47.197Z,4.30
2023-02-04T04:18:13.541Z,4.34
2023-02-04T04:20:39.944Z,4.52
2023-02-04T04:23:06.268Z,4.16
2023-02-04T04:25:32.624Z,4.17
2023-02-04T04:27:58.948Z,3.96
2023-02-04T04:30:26.325Z,3.73
2023-02-04T04:32:52.619Z,3.67
2023-02-04T04:35:21.322Z,3.61
2023-02-04T04:37:47.671Z,3.45
2023-02-04T04:40:14.187Z,3.50
2023-02-04T04:42:40.552Z,3.60
2023-02-04T04:45:08.422Z,3.51
2023-02-04T04:47:34.750Z,3.42
2023-02-04T04:50:03.459Z,3.44
2023-02-04T04:52:29.788Z,3.40
2023-02-04T04:54:57.102Z,3.40
2023-02-04T04:57:23.489Z,3.35
2023-02-04T04:59:50.956Z,3.39
2023-02-04T05:02:17.336Z,3.36
2023-02-04T05:04:45.772Z,3.39
2023-02-04T05:07:12.109Z,3.40
2023-02-04T05:09:41.588Z,3.28
2023-02-04T05:12:07.917Z,3.25
2023-02-04T05:14:34.326Z,3.19
2023-02-04T05:17:00.654Z,3.06
2023-02-04T05:19:27.115Z,3.16
2023-02-04T05:21:53.414Z,3.20
2023-02-04T05:24:21.732Z,3.05
2023-02-04T05:26:48.107Z,3.02
2023-02-04T05:29:14.566Z,2.98
2023-02-04T05:31:40.994Z,2.94
2023-02-04T05:34:07.324Z,2.93
2023-02-04T05:36:33.654Z,2.98
2023-02-04T05:39:00.118Z,2.83
2023-02-04T05:41:26.488Z,2.92
2023-02-04T05:43:52.833Z,2.89
2023-02-04T05:46:19.343Z,2.84
2023-02-04T05:48:45.705Z,2.88
2023-02-04T05:51:12.030Z,2.82
2023-02-04T05:53:38.344Z,2.72
2023-02-04T05:56:04.853Z,2.86
2023-02-04T05:58:33.514Z,2.71
2023-02-04T06:01:01.467Z,2.80
2023-02-04T06:03:28.028Z,2.71
2023-02-04T06:05:55.404Z,2.62
2023-02-04T06:08:21.801Z,2.62
2023-02-04T06:10:49.260Z,2.71
2023-02-04T06:13:16.008Z,2.66
2023-02-04T06:15:42.419Z,2.56
2023-02-04T06:18:08.812Z,2.51
2023-02-04T06:20:35.339Z,2.50
2023-02-04T06:23:01.650Z,2.54
2023-02-04T06:25:28.057Z,2.54
2023-02-04T06:27:54.446Z,2.45
2023-02-04T06:30:20.844Z,2.42
2023-02-04T06:32:47.397Z,2.39
2023-02-04T06:35:15.248Z,2.31
2023-02-04T06:37:43.458Z,2.28
2023-02-04T06:40:11.574Z,2.29
2023-02-04T06:42:37.996Z,2.34
2023-02-04T06:45:04.574Z,2.35
2023-02-04T06:47:30.976Z,2.26
2023-02-04T06:49:57.419Z,2.42
2023-02-04T06:52:23.793Z,2.16
2023-02-04T06:54:52.156Z,2.28
2023-02-04T06:57:18.484Z,2.30
2023-02-04T06:59:44.851Z,2.44
2023-02-04T07:02:12.221Z,2.28
2023-02-04T07:04:38.585Z,2.27
2023-02-04T07:07:06.993Z,2.29
2023-02-04T07:09:33.388Z,2.36
2023-02-04T07:12:00.728Z,2.27
2023-02-04T07:14:27.134Z,2.26
2023-02-04T07:16:54.498Z,2.33
2023-02-04T07:19:26.925Z,2.30
2023-02-04T07:21:57.261Z,2.27
2023-02-04T07:24:25.097Z,2.39
2023-02-04T07:26:51.473Z,2.21
2023-02-04T07:29:25.127Z,2.39
2023-02-04T07:31:53.500Z,2.54
2023-02-04T07:34:20.172Z,2.43
2023-02-04T07:36:46.621Z,2.42
2023-02-04T07:39:13.070Z,2.43
2023-02-04T07:41:39.396Z,2.48
2023-02-04T07:44:06.784Z,2.34
2023-02-04T07:46:34.159Z,2.46
2023-02-04T07:49:00.548Z,2.62
2023-02-04T07:51:27.924Z,3.94
2023-02-04T07:53:55.955Z,4.88
2023-02-04T07:56:22.414Z,5.21
2023-02-04T07:58:48.927Z,5.78
2023-02-04T08:01:17.467Z,5.71
2023-02-04T08:03:44.850Z,5.77
2023-02-04T08:06:11.206Z,5.61
2023-02-04T08:08:38.573Z,5.69
2023-02-04T08:11:05.167Z,5.82
2023-02-04T08:13:31.614Z,6.26
2023-02-04T08:15:58.074Z,6.23
2023-02-04T08:18:25.142Z,6.12
2023-02-04T08:20:51.620Z,6.26
2023-02-04T08:23:17.961Z,6.73
2023-02-04T08:25:45.521Z,7.44
2023-02-04T08:28:11.920Z,7.51
2023-02-04T08:30:38.427Z,7.04
2023-02-04T08:33:05.946Z,5.72
2023-02-04T08:35:33.305Z,4.66
2023-02-04T08:37:59.615Z,4.54
2023-02-04T08:40:27.168Z,4.44
2023-02-04T08:42:53.531Z,4.16
2023-02-04T08:45:19.876Z,4.10
2023-02-04T08:47:46.540Z,3.94
2023-02-04T08:50:13.072Z,4.08
2023-02-04T08:52:40.641Z,4.12
2023-02-04T08:55:07.279Z,3.92
2023-02-04T08:57:35.939Z,4.63
2023-02-04T09:00:02.417Z,6.47
2023-02-04T09:02:28.875Z,7.48
2023-02-04T09:04:55.215Z,8.26
2023-02-04T09:07:21.747Z,7.31
2023-02-04T09:09:48.277Z,6.54
2023-02-04T09:12:14.817Z,6.08
2023-02-04T09:14:41.204Z,6.28
2023-02-04T09:17:07.834Z,6.32
2023-02-04T09:19:34.220Z,5.68
2023-02-04T09:22:02.596Z,5.58
2023-02-04T09:24:28.995Z,5.47
2023-02-04T09:26:55.419Z,5.57
2023-02-04T09:29:21.983Z,5.20
2023-02-04T09:31:49.154Z,5.50
2023-02-04T09:34:16.136Z,5.17
2023-02-04T09:36:42.551Z,5.10
2023-02-04T09:39:12.210Z,5.68
2023-02-04T09:41:40.042Z,5.63
2023-02-04T09:44:10.761Z,4.98
2023-02-04T09:46:37.149Z,4.64
2023-02-04T09:49:04.360Z,4.98
2023-02-04T09:51:36.994Z,5.05
2023-02-04T09:54:09.854Z,4.93
2023-02-04T09:56:36.422Z,5.24
2023-02-04T09:59:04.295Z,5.57
2023-02-04T10:01:30.868Z,5.43
2023-02-04T10:04:00.916Z,5.41
2023-02-04T10:06:27.364Z,5.56
2023-02-04T10:08:54.359Z,5.25
2023-02-04T10:11:21.292Z,5.78
2023-02-04T10:13:50.352Z,5.97
2023-02-04T10:16:29.775Z,5.42
2023-02-04T10:18:57.496Z,5.43
2023-02-04T10:21:28.322Z,5.48
2023-02-04T10:24:02.598Z,5.32
2023-02-04T10:26:31.920Z,5.42
2023-02-04T10:28:59.458Z,5.44
2023-02-04T10:31:30.259Z,5.22
2023-02-04T10:34:26.000Z,5.01
2023-02-04T10:36:54.245Z,4.82
2023-02-04T10:39:23.076Z,4.77
2023-02-04T10:41:52.310Z,4.71
2023-02-04T10:44:39.699Z,4.66
2023-02-04T10:47:08.586Z,4.78
2023-02-04T10:49:34.978Z,4.78
2023-02-04T10:52:15.566Z,4.78
2023-02-04T10:54:42.087Z,4.87
2023-02-04T10:57:18.302Z,4.72
2023-02-04T10:59:46.195Z,4.75
2023-02-04T11:02:31.121Z,4.77
2023-02-04T11:05:00.515Z,4.72
2023-02-04T11:07:26.917Z,4.79
2023-02-04T11:09:53.570Z,4.89
2023-02-04T11:12:21.433Z,5.08
2023-02-04T11:14:58.003Z,5.58
2023-02-04T11:17:31.465Z,6.68
2023-02-04T11:19:58.268Z,6.56
2023-02-04T11:22:36.634Z,6.21
2023-02-04T11:25:23.024Z,5.58
2023-02-04T11:27:49.395Z,5.36
2023-02-04T11:30:23.312Z,4.95
2023-02-04T11:33:00.751Z,4.91
2023-02-04T11:35:28.904Z,4.90
2023-02-04T11:37:56.038Z,5.24
2023-02-04T11:40:22.463Z,5.23
2023-02-04T13:14:53.330Z,5.11
2023-02-04T13:17:19.775Z,5.02
2023-02-04T13:19:46.259Z,4.92
2023-02-04T13:22:12.680Z,4.89
2023-02-04T13:24:39.097Z,5.08
2023-02-04T13:27:05.561Z,5.42
2023-02-04T13:29:32.020Z,5.63
2023-02-04T13:31:58.501Z,5.83
2023-02-04T13:34:25.013Z,5.76
2023-02-04T13:36:51.878Z,5.73
2023-02-04T13:39:18.447Z,5.97
2023-02-04T13:41:45.379Z,5.70
2023-02-04T13:44:11.907Z,5.52
2023-02-04T13:46:38.417Z,5.42
2023-02-04T13:49:04.806Z,5.05
2023-02-04T13:51:31.499Z,5.23
2023-02-04T13:53:59.371Z,5.10
2023-02-04T13:56:27.112Z,5.16
2023-02-04T13:58:53.707Z,4.92
2023-02-04T14:01:20.657Z,4.78
2023-02-04T14:03:47.275Z,4.84
2023-02-04T14:06:15.114Z,4.94
2023-02-04T14:08:41.645Z,5.12
2023-02-04T14:11:08.203Z,5.13
2023-02-04T14:13:34.673Z,5.17
2023-02-04T14:16:01.159Z,5.17
2023-02-04T14:18:27.577Z,4.98
2023-02-04T14:20:53.979Z,4.86
2023-02-04T14:23:20.392Z,4.80
2023-02-04T14:25:46.802Z,4.77
2023-02-04T14:28:17.852Z,4.81
2023-02-04T14:30:44.344Z,4.56
2023-02-04T14:33:10.896Z,4.61
2023-02-04T14:35:37.684Z,4.35
2023-02-04T14:38:04.120Z,4.49
2023-02-04T14:40:30.835Z,4.38
2023-02-04T14:42:57.404Z,4.42
2023-02-04T14:45:23.823Z,4.38
2023-02-04T14:47:52.595Z,4.29
2023-02-04T14:50:19.049Z,4.31
2023-02-04T14:52:46.041Z,4.42
2023-02-04T14:55:12.998Z,4.34
2023-02-04T14:57:39.482Z,4.40
2023-02-04T15:00:07.024Z,4.49
2023-02-04T15:02:33.531Z,4.46
2023-02-04T15:05:00.171Z,4.50
2023-02-04T15:07:26.579Z,4.63
2023-02-04T15:09:53.071Z,4.75
2023-02-04T15:12:19.503Z,4.83
2023-02-04T15:14:46.118Z,4.84
2023-02-04T15:17:12.884Z,4.56
2023-02-04T15:19:39.434Z,4.45
2023-02-04T15:22:05.867Z,4.41
2023-02-04T15:24:32.362Z,4.41
2023-02-04T15:26:58.854Z,4.35
2023-02-04T15:29:25.353Z,4.41
2023-02-04T15:31:51.945Z,4.32
2023-02-04T15:34:18.541Z,4.25
2023-02-04T15:36:45.948Z,4.15
2023-02-04T15:39:12.551Z,4.27
2023-02-04T15:41:39.013Z,4.16
2023-02-04T15:44:05.635Z,4.18
2023-02-04T15:46:34.308Z,4.18
2023-02-04T15:49:01.523Z,3.96
2023-02-04T15:51:28.310Z,3.91
2023-02-04T15:53:54.768Z,3.86
2023-02-04T15:56:21.235Z,3.87
2023-02-04T15:58:47.673Z,3.86
2023-02-04T16:01:17.162Z,3.82
2023-02-04T16:03:44.783Z,3.77
2023-02-04T16:06:11.524Z,3.60
2023-02-04T16:08:38.872Z,3.51
2023-02-04T16:11:06.126Z,3.50
2023-02-04T16:13:32.771Z,3.42
2023-02-04T16:15:59.298Z,3.49
2023-02-04T16:18:25.729Z,3.41
2023-02-04T16:20:52.220Z,3.34
2023-02-04T16:23:18.699Z,3.32
2023-02-04T16:25:45.185Z,3.26
2023-02-04T16:28:11.655Z,3.11
2023-02-04T16:30:40.434Z,3.10
2023-02-04T16:33:07.032Z,3.00
2023-02-04T16:36:03.402Z,2.87
2023-02-04T16:38:31.104Z,2.94
2023-02-04T16:40:58.116Z,2.89
2023-02-04T16:43:24.782Z,2.80
2023-02-04T16:45:51.676Z,2.84
2023-02-04T16:48:18.275Z,2.76
2023-02-04T16:50:44.788Z,2.66
2023-02-04T16:53:14.997Z,2.52
2023-02-04T16:55:45.590Z,2.62
2023-02-04T16:58:13.939Z,2.66
2023-02-04T17:00:42.500Z,2.52
2023-02-04T17:03:09.833Z,2.55
2023-02-04T17:05:36.519Z,2.43
2023-02-04T17:08:03.344Z,2.36
2023-02-04T17:10:48.283Z,2.30
2023-02-04T17:13:14.819Z,2.18
2023-02-04T17:15:41.424Z,2.15
2023-02-04T17:18:08.198Z,2.07
2023-02-04T17:20:34.787Z,1.95
2023-02-04T17:23:01.292Z,1.76
2023-02-04T17:25:27.776Z,1.70
2023-02-04T17:27:55.986Z,1.71
2023-02-04T17:30:22.719Z,1.69
2023-02-04T17:32:49.191Z,1.71
2023-02-04T17:35:17.353Z,1.68
2023-02-04T17:37:44.333Z,1.63
2023-02-04T17:40:14.479Z,1.55
2023-02-04T17:42:41.284Z,1.51
2023-02-04T17:45:10.475Z,1.59
2023-02-04T17:47:39.867Z,1.53
2023-02-04T17:50:10.268Z,1.49
2023-02-04T17:52:37.836Z,1.44
2023-02-04T17:55:28.826Z,1.35
2023-02-04T17:57:58.278Z,1.31
2023-02-04T18:00:28.926Z,1.40
2023-02-04T18:02:56.059Z,1.29
2023-02-04T18:05:26.675Z,1.16
2023-02-04T18:08:00.010Z,1.05
2023-02-04T18:10:37.791Z,0.85
2023-02-04T18:13:27.476Z,0.94
2023-02-04T18:16:02.906Z,0.88
2023-02-04T18:18:36.814Z,0.85
2023-02-04T18:21:19.084Z,0.96
2023-02-04T18:23:46.364Z,0.83
2023-02-04T18:26:24.268Z,0.72
2023-02-04T18:28:50.773Z,0.83
2023-02-04T18:31:33.424Z,0.71
2023-02-04T18:34:11.031Z,0.66
2023-02-04T18:36:37.863Z,0.67
2023-02-04T18:39:18.714Z,0.67
2023-02-04T18:41:50.117Z,0.61
2023-02-04T18:44:33.658Z,0.41
2023-02-04T18:47:05.082Z,0.23
2023-02-04T18:49:39.575Z,0.13
2023-02-04T18:52:17.728Z,0.17
2023-02-04T18:54:51.985Z,0.21
2023-02-04T18:57:28.874Z,0.08
2023-02-04T19:00:18.501Z,-0.23
2023-02-04T19:02:57.864Z,0.02
2023-02-04T19:05:48.475Z,0.04
2023-02-04T19:08:24.010Z,0.17
2023-02-04T19:10:54.153Z,0.22
2023-02-04T19:13:27.040Z,0.23
2023-02-04T19:15:57.925Z,0.21
2023-02-04T19:18:38.102Z,-0.10
2023-02-04T19:21:22.156Z,0.05
2023-02-04T19:24:20.820Z,0.07
2023-02-04T19:26:55.337Z,-0.12
2023-02-04T19:29:21.735Z,-0.28
2023-02-04T19:31:49.311Z,-0.30
2023-02-04T19:34:25.600Z,-0.50
2023-02-04T19:36:54.188Z,-0.56
2023-02-04T19:39:30.649Z,-0.44
2023-02-04T19:41:58.152Z,-0.34
2023-02-04T19:44:28.132Z,-0.40
2023-02-04T19:46:54.937Z,-0.43
2023-02-04T19:49:28.471Z,-0.50
2023-02-04T19:51:57.797Z,-0.51
2023-02-04T19:54:37.174Z,-0.52
2023-02-04T19:57:20.836Z,-0.66
2023-02-04T19:59:47.286Z,-0.80
2023-02-04T20:02:33.516Z,-0.70
2023-02-04T20:05:00.390Z,-0.66
2023-02-04T20:07:28.958Z,-0.69
2023-02-04T20:10:21.782Z,-0.71
2023-02-04T20:12:51.288Z,-0.76
2023-02-04T20:15:20.320Z,-0.76
2023-02-04T20:17:48.362Z,-0.77
2023-02-04T20:20:20.562Z,-0.81
2023-02-04T20:22:49.831Z,-0.72
2023-02-04T20:25:19.547Z,-0.89
2023-02-04T20:27:55.038Z,-0.87
2023-02-04T20:30:23.939Z,-0.76
2023-02-04T20:32:54.768Z,-0.76
2023-02-04T20:35:21.187Z,-0.70
2023-02-04T20:37:57.807Z,-0.66
2023-02-04T20:40:27.521Z,-0.68
2023-02-04T20:42:59.672Z,-0.81
2023-02-04T20:45:32.797Z,-1.06
2023-02-04T20:48:19.982Z,-1.28
2023-02-04T20:50:54.420Z,-1.50
2023-02-04T20:53:26.064Z,-1.32
2023-02-04T20:55:55.884Z,-1.28
2023-02-04T20:58:27.097Z,-1.17
2023-02-04T21:00:55.791Z,-1.16
2023-02-04T21:03:34.851Z,-1.14
2023-02-04T21:06:02.981Z,-1.21
2023-02-04T21:08:34.491Z,-1.26
2023-02-04T21:11:02.570Z,-1.37
2023-02-04T21:13:29.108Z,-1.35
2023-02-04T21:15:56.656Z,-1.26
2023-02-04T21:18:23.206Z,-1.23
2023-02-04T21:20:49.676Z,-1.26
2023-02-04T21:23:17.859Z,-1.41
2023-02-04T21:25:45.065Z,-1.48
2023-02-04T21:28:11.928Z,-1.52
2023-02-04T21:30:38.641Z,-1.63
2023-02-04T21:33:05.130Z,-1.58
2023-02-04T21:35:31.747Z,-1.61
2023-02-04T21:38:04.262Z,-1.65
2023-02-04T21:40:32.916Z,-1.61
2023-02-04T21:42:59.408Z,-1.54
2023-02-04T21:45:25.949Z,-1.58
2023-02-04T21:47:53.055Z,-1.60
2023-02-04T21:50:21.896Z,-1.55
2023-02-04T21:52:48.841Z,-1.48
2023-02-04T21:55:19.033Z,-1.56
2023-02-04T21:57:46.168Z,-1.51
2023-02-04T22:00:13.579Z,-1.49
2023-02-04T22:02:40.004Z,-1.53
2023-02-04T22:05:07.323Z,-1.48
2023-02-04T22:07:35.264Z,-1.49
2023-02-04T22:10:03.276Z,-1.48
2023-02-04T22:12:29.732Z,-1.65
2023-02-04T22:14:56.348Z,-1.72
2023-02-04T22:17:22.792Z,-1.83
2023-02-04T22:19:49.382Z,-1.93
2023-02-04T22:22:15.827Z,-1.89
2023-02-04T22:24:42.287Z,-1.98
2023-02-04T22:27:08.877Z,-1.98
2023-02-04T22:29:35.591Z,-1.94
2023-02-04T22:32:02.126Z,-1.91
2023-02-04T22:34:28.620Z,-1.95
2023-02-04T22:36:55.561Z,-2.11
2023-02-04T22:39:21.984Z,-2.22
2023-02-04T22:41:48.483Z,-2.28
2023-02-04T22:44:15.069Z,-2.36
2023-02-04T22:46:41.884Z,-2.39
2023-02-04T22:49:08.363Z,-2.47
2023-02-04T22:51:34.775Z,-2.50
2023-02-04T22:54:01.619Z,-2.42
2023-02-04T22:56:28.278Z,-2.49
2023-02-04T22:58:54.725Z,-2.55
2023-02-04T23:01:21.386Z,-2.50
2023-02-04T23:03:48.798Z,-2.43
2023-02-04T23:06:15.925Z,-2.46
2023-02-04T23:08:42.662Z,-2.46
2023-02-04T23:11:09.462Z,-2.40
2023-02-04T23:13:36.524Z,-2.44
2023-02-04T23:16:03.003Z,-2.44
2023-02-04T23:18:29.458Z,-2.40
2023-02-04T23:20:55.926Z,-2.37
2023-02-04T23:23:22.454Z,-2.46
2023-02-04T23:25:49.588Z,-2.54
2023-02-04T23:28:16.671Z,-2.44
2023-02-04T23:30:43.271Z,-2.57
2023-02-04T23:33:10.834Z,-2.55
2023-02-04T23:35:37.289Z,-2.61
2023-02-04T23:38:03.730Z,-2.64
2023-02-04T23:40:30.193Z,-2.71
2023-02-04T23:42:56.635Z,-2.69
2023-02-04T23:45:23.233Z,-2.78
2023-02-04T23:47:49.637Z,-2.74
2023-02-04T23:50:16.710Z,-2.86
2023-02-04T23:52:43.429Z,-2.87
2023-02-04T23:55:09.993Z,-2.81
2023-02-04T23:57:36.447Z,-2.77
